Terminal Aerodrome Forecast
Issued by NWS

Home | Current Version | Previous Version | Text Only | Print | Product List | Glossary On
Versions: 1 2 3 4 5 6 7 8 9 10 11 12 13 14 15 16 17
000
FTUS44 KEPZ 201700 RRA
TAFDMN
TAF
KDMN 201742Z 2018/2118 26010KT P6SM FEW070 FEW120
     FM210300 30008KT P6SM FEW100 SCT250
     FM211500 15008KT P6SM SCT080 SCT250=

USA.gov is the U.S. government's official web portal to all federal, state and local government web resources and services.